Bayshore Gardens, Florida
Current Conditions -  °F | °C
As of 10:53 PM on Tuesday 21 Oct 2014 (Local Time) from KSRQ Reporting Station
Clear Clear  
Wind Chill: 74°   Ceiling: Unl
Heat Index: 74°   Visibility: 10mi
Dew Point: 67°   Wind: 3mph
Humidity: 79%   Direction: 50°NE
Pressure: 29.95"   Gusts: NA
Location:  27.4402°N, 82.5786°W
Report Text: KSRQ 220253Z AUTO 05003KT 10SM CLR 23/19 A2995 RMK AO2 SLP141 T02330194 53012
Loading
Personal Weather Stations






























Interactive Weather Map New forecast layout! Learn more

10-Day Weather Forecast

Advertisements
Track Severe Weather on mobile